sensor_id;sensor_type;location;lat;lon;timestamp;temperature;humidity
75430;DHT22;64127;51.488;5.462;2023-01-28T00:00:02;5.80;99.90
75430;DHT22;64127;51.488;5.462;2023-01-28T00:02:37;5.80;99.90
75430;DHT22;64127;51.488;5.462;2023-01-28T00:05:09;5.80;99.90
75430;DHT22;64127;51.488;5.462;2023-01-28T00:07:41;5.80;99.90
75430;DHT22;64127;51.488;5.462;2023-01-28T00:10:14;5.70;99.90
75430;DHT22;64127;51.488;5.462;2023-01-28T00:12:46;5.70;99.90
75430;DHT22;64127;51.488;5.462;2023-01-28T00:15:18;5.70;99.90
75430;DHT22;64127;51.488;5.462;2023-01-28T00:17:50;5.70;99.90
75430;DHT22;64127;51.488;5.462;2023-01-28T00:20:23;5.60;99.90
75430;DHT22;64127;51.488;5.462;2023-01-28T00:22:55;5.70;99.90
75430;DHT22;64127;51.488;5.462;2023-01-28T00:25:27;5.60;99.90
75430;DHT22;64127;51.488;5.462;2023-01-28T00:27:59;5.70;99.90
75430;DHT22;64127;51.488;5.462;2023-01-28T00:30:30;5.70;99.90
75430;DHT22;64127;51.488;5.462;2023-01-28T00:33:02;5.70;99.90
75430;DHT22;64127;51.488;5.462;2023-01-28T00:35:36;5.80;99.90
75430;DHT22;64127;51.488;5.462;2023-01-28T00:38:08;5.70;99.90
75430;DHT22;64127;51.488;5.462;2023-01-28T00:40:40;5.80;99.90
75430;DHT22;64127;51.488;5.462;2023-01-28T00:43:12;5.70;99.90
75430;DHT22;64127;51.488;5.462;2023-01-28T00:45:45;5.70;99.90
75430;DHT22;64127;51.488;5.462;2023-01-28T00:48:20;5.70;99.90
75430;DHT22;64127;51.488;5.462;2023-01-28T00:50:53;5.70;99.90
75430;DHT22;64127;51.488;5.462;2023-01-28T00:53:25;5.60;99.90
75430;DHT22;64127;51.488;5.462;2023-01-28T00:55:57;5.60;99.90
75430;DHT22;64127;51.488;5.462;2023-01-28T00:58:29;5.60;99.90
75430;DHT22;64127;51.488;5.462;2023-01-28T01:01:14;5.60;99.90
75430;DHT22;64127;51.488;5.462;2023-01-28T01:03:51;5.60;99.90
75430;DHT22;64127;51.488;5.462;2023-01-28T01:06:38;5.60;99.90
75430;DHT22;64127;51.488;5.462;2023-01-28T01:09:11;5.60;99.90
75430;DHT22;64127;51.488;5.462;2023-01-28T01:11:43;5.60;99.90
75430;DHT22;64127;51.488;5.462;2023-01-28T01:14:15;5.60;99.90
75430;DHT22;64127;51.488;5.462;2023-01-28T01:16:47;5.60;99.90
75430;DHT22;64127;51.488;5.462;2023-01-28T01:19:19;5.60;99.90
75430;DHT22;64127;51.488;5.462;2023-01-28T01:21:51;5.70;99.90
75430;DHT22;64127;51.488;5.462;2023-01-28T01:24:23;5.70;99.90
75430;DHT22;64127;51.488;5.462;2023-01-28T01:26:55;5.70;99.90
75430;DHT22;64127;51.488;5.462;2023-01-28T01:29:27;5.70;99.90
75430;DHT22;64127;51.488;5.462;2023-01-28T01:32:00;5.70;99.90
75430;DHT22;64127;51.488;5.462;2023-01-28T01:34:32;5.70;99.90
75430;DHT22;64127;51.488;5.462;2023-01-28T01:37:04;5.70;99.90
75430;DHT22;64127;51.488;5.462;2023-01-28T01:39:39;5.70;99.90
75430;DHT22;64127;51.488;5.462;2023-01-28T01:42:12;5.70;99.90
75430;DHT22;64127;51.488;5.462;2023-01-28T01:51:16;5.80;99.90
75430;DHT22;64127;51.488;5.462;2023-01-28T01:53:54;5.80;99.90
75430;DHT22;64127;51.488;5.462;2023-01-28T01:56:33;5.70;99.90
75430;DHT22;64127;51.488;5.462;2023-01-28T01:59:12;5.70;99.90
75430;DHT22;64127;51.488;5.462;2023-01-28T02:01:48;5.70;99.90
75430;DHT22;64127;51.488;5.462;2023-01-28T02:04:34;5.70;99.90
75430;DHT22;64127;51.488;5.462;2023-01-28T02:07:13;5.70;99.90
75430;DHT22;64127;51.488;5.462;2023-01-28T02:09:47;5.60;99.90
75430;DHT22;64127;51.488;5.462;2023-01-28T02:12:28;5.60;99.90
75430;DHT22;64127;51.488;5.462;2023-01-28T02:15:17;5.60;99.90
75430;DHT22;64127;51.488;5.462;2023-01-28T02:17:51;5.50;99.90
75430;DHT22;64127;51.488;5.462;2023-01-28T02:26:55;5.60;99.90
75430;DHT22;64127;51.488;5.462;2023-01-28T02:29:46;5.60;99.90
75430;DHT22;64127;51.488;5.462;2023-01-28T02:32:56;5.60;99.90
75430;DHT22;64127;51.488;5.462;2023-01-28T02:35:42;5.60;99.90
75430;DHT22;64127;51.488;5.462;2023-01-28T02:38:32;5.60;99.90
75430;DHT22;64127;51.488;5.462;2023-01-28T02:41:22;5.50;99.90
75430;DHT22;64127;51.488;5.462;2023-01-28T02:44:01;5.50;99.90
75430;DHT22;64127;51.488;5.462;2023-01-28T02:46:35;5.50;99.90
75430;DHT22;64127;51.488;5.462;2023-01-28T02:49:40;5.50;99.90
75430;DHT22;64127;51.488;5.462;2023-01-28T02:59:22;5.50;99.90
75430;DHT22;64127;51.488;5.462;2023-01-28T03:05:15;5.50;99.90
75430;DHT22;64127;51.488;5.462;2023-01-28T03:07:53;5.50;99.90
75430;DHT22;64127;51.488;5.462;2023-01-28T03:10:26;5.40;99.90
75430;DHT22;64127;51.488;5.462;2023-01-28T03:12:59;5.40;99.90
75430;DHT22;64127;51.488;5.462;2023-01-28T03:15:50;5.40;99.90
75430;DHT22;64127;51.488;5.462;2023-01-28T03:18:48;5.40;99.90
75430;DHT22;64127;51.488;5.462;2023-01-28T03:21:42;5.40;99.90
75430;DHT22;64127;51.488;5.462;2023-01-28T03:24:46;5.40;99.90
75430;DHT22;64127;51.488;5.462;2023-01-28T03:33:41;5.40;99.90
75430;DHT22;64127;51.488;5.462;2023-01-28T03:36:34;5.40;99.90
75430;DHT22;64127;51.488;5.462;2023-01-28T03:39:24;5.40;99.90
75430;DHT22;64127;51.488;5.462;2023-01-28T03:42:07;5.40;99.90
75430;DHT22;64127;51.488;5.462;2023-01-28T03:44:40;5.50;99.90
75430;DHT22;64127;51.488;5.462;2023-01-28T03:47:24;5.50;99.90
75430;DHT22;64127;51.488;5.462;2023-01-28T03:49:58;5.50;99.90
75430;DHT22;64127;51.488;5.462;2023-01-28T03:52:32;5.50;99.90
75430;DHT22;64127;51.488;5.462;2023-01-28T03:55:05;5.50;99.90
75430;DHT22;64127;51.488;5.462;2023-01-28T03:57:44;5.50;99.90
75430;DHT22;64127;51.488;5.462;2023-01-28T04:00:17;5.50;99.90
75430;DHT22;64127;51.488;5.462;2023-01-28T04:02:50;5.50;99.90
75430;DHT22;64127;51.488;5.462;2023-01-28T04:05:23;5.50;99.90
75430;DHT22;64127;51.488;5.462;2023-01-28T04:07:56;5.50;99.90
75430;DHT22;64127;51.488;5.462;2023-01-28T04:10:27;5.50;99.90
75430;DHT22;64127;51.488;5.462;2023-01-28T04:12:59;5.50;99.90
75430;DHT22;64127;51.488;5.462;2023-01-28T04:15:32;5.50;99.90
75430;DHT22;64127;51.488;5.462;2023-01-28T04:18:04;5.50;99.90
75430;DHT22;64127;51.488;5.462;2023-01-28T04:20:36;5.50;99.90
75430;DHT22;64127;51.488;5.462;2023-01-28T04:23:08;5.50;99.90
75430;DHT22;64127;51.488;5.462;2023-01-28T04:25:40;5.50;99.90
75430;DHT22;64127;51.488;5.462;2023-01-28T04:28:12;5.50;99.90
75430;DHT22;64127;51.488;5.462;2023-01-28T04:30:44;5.50;99.90
75430;DHT22;64127;51.488;5.462;2023-01-28T04:33:16;5.50;99.90
75430;DHT22;64127;51.488;5.462;2023-01-28T04:35:48;5.50;99.90
75430;DHT22;64127;51.488;5.462;2023-01-28T04:38:21;5.50;99.90
75430;DHT22;64127;51.488;5.462;2023-01-28T04:40:53;5.50;99.90
75430;DHT22;64127;51.488;5.462;2023-01-28T04:43:25;5.50;99.90
75430;DHT22;64127;51.488;5.462;2023-01-28T04:45:57;5.50;99.90
75430;DHT22;64127;51.488;5.462;2023-01-28T04:48:29;5.50;99.90
75430;DHT22;64127;51.488;5.462;2023-01-28T04:51:03;5.40;99.90
75430;DHT22;64127;51.488;5.462;2023-01-28T04:53:35;5.40;99.90
75430;DHT22;64127;51.488;5.462;2023-01-28T04:56:07;5.40;99.90
75430;DHT22;64127;51.488;5.462;2023-01-28T04:58:39;5.40;99.90
75430;DHT22;64127;51.488;5.462;2023-01-28T05:01:11;5.40;99.90
75430;DHT22;64127;51.488;5.462;2023-01-28T05:03:43;5.40;99.90
75430;DHT22;64127;51.488;5.462;2023-01-28T05:06:15;5.40;99.90
75430;DHT22;64127;51.488;5.462;2023-01-28T05:08:47;5.40;99.90
75430;DHT22;64127;51.488;5.462;2023-01-28T05:11:19;5.40;99.90
75430;DHT22;64127;51.488;5.462;2023-01-28T05:13:53;5.40;99.90
75430;DHT22;64127;51.488;5.462;2023-01-28T05:16:26;5.40;99.90
75430;DHT22;64127;51.488;5.462;2023-01-28T05:18:58;5.40;99.90
75430;DHT22;64127;51.488;5.462;2023-01-28T05:21:29;5.40;99.90
75430;DHT22;64127;51.488;5.462;2023-01-28T05:24:01;5.40;99.90
75430;DHT22;64127;51.488;5.462;2023-01-28T05:26:33;5.40;99.90
75430;DHT22;64127;51.488;5.462;2023-01-28T05:29:06;5.40;99.90
75430;DHT22;64127;51.488;5.462;2023-01-28T05:31:38;5.40;99.90
75430;DHT22;64127;51.488;5.462;2023-01-28T05:34:10;5.40;99.90
75430;DHT22;64127;51.488;5.462;2023-01-28T05:36:42;5.40;99.90
75430;DHT22;64127;51.488;5.462;2023-01-28T05:39:14;5.40;99.90
75430;DHT22;64127;51.488;5.462;2023-01-28T05:41:46;5.40;99.90
75430;DHT22;64127;51.488;5.462;2023-01-28T05:44:18;5.40;99.90
75430;DHT22;64127;51.488;5.462;2023-01-28T05:46:50;5.30;99.90
75430;DHT22;64127;51.488;5.462;2023-01-28T05:49:22;5.40;99.90
75430;DHT22;64127;51.488;5.462;2023-01-28T05:51:54;5.30;99.90
75430;DHT22;64127;51.488;5.462;2023-01-28T05:54:26;5.40;99.90
75430;DHT22;64127;51.488;5.462;2023-01-28T05:56:59;5.40;99.90
75430;DHT22;64127;51.488;5.462;2023-01-28T05:59:31;5.40;99.90
75430;DHT22;64127;51.488;5.462;2023-01-28T06:02:03;5.40;99.90
75430;DHT22;64127;51.488;5.462;2023-01-28T06:04:35;5.40;99.90
75430;DHT22;64127;51.488;5.462;2023-01-28T06:07:07;5.40;99.90
75430;DHT22;64127;51.488;5.462;2023-01-28T06:09:39;5.30;99.90
75430;DHT22;64127;51.488;5.462;2023-01-28T06:12:10;5.30;99.90
75430;DHT22;64127;51.488;5.462;2023-01-28T06:14:42;5.30;99.90
75430;DHT22;64127;51.488;5.462;2023-01-28T06:17:14;5.30;99.90
75430;DHT22;64127;51.488;5.462;2023-01-28T06:19:46;5.30;99.90
75430;DHT22;64127;51.488;5.462;2023-01-28T06:22:18;5.30;99.90
75430;DHT22;64127;51.488;5.462;2023-01-28T06:24:50;5.30;99.90
75430;DHT22;64127;51.488;5.462;2023-01-28T06:27:22;5.30;99.90
75430;DHT22;64127;51.488;5.462;2023-01-28T06:29:54;5.30;99.90
75430;DHT22;64127;51.488;5.462;2023-01-28T06:32:27;5.30;99.90
75430;DHT22;64127;51.488;5.462;2023-01-28T06:34:59;5.30;99.90
75430;DHT22;64127;51.488;5.462;2023-01-28T06:37:31;5.30;99.90
75430;DHT22;64127;51.488;5.462;2023-01-28T06:40:03;5.30;99.90
75430;DHT22;64127;51.488;5.462;2023-01-28T06:42:36;5.30;99.90
75430;DHT22;64127;51.488;5.462;2023-01-28T06:45:08;5.30;99.90
75430;DHT22;64127;51.488;5.462;2023-01-28T06:47:40;5.30;99.90
75430;DHT22;64127;51.488;5.462;2023-01-28T06:50:12;5.30;99.90
75430;DHT22;64127;51.488;5.462;2023-01-28T06:52:44;5.30;99.90
75430;DHT22;64127;51.488;5.462;2023-01-28T06:55:17;5.30;99.90
75430;DHT22;64127;51.488;5.462;2023-01-28T06:57:49;5.30;99.90
75430;DHT22;64127;51.488;5.462;2023-01-28T07:00:22;5.30;99.90
75430;DHT22;64127;51.488;5.462;2023-01-28T07:02:56;5.30;99.90
75430;DHT22;64127;51.488;5.462;2023-01-28T07:05:29;5.20;99.90
75430;DHT22;64127;51.488;5.462;2023-01-28T07:08:01;5.30;99.90
75430;DHT22;64127;51.488;5.462;2023-01-28T07:10:33;5.20;99.90
75430;DHT22;64127;51.488;5.462;2023-01-28T07:13:05;5.20;99.90
75430;DHT22;64127;51.488;5.462;2023-01-28T07:15:37;5.20;99.90
75430;DHT22;64127;51.488;5.462;2023-01-28T07:18:09;5.20;99.90
75430;DHT22;64127;51.488;5.462;2023-01-28T07:20:41;5.20;99.90
75430;DHT22;64127;51.488;5.462;2023-01-28T07:23:13;5.20;99.90
75430;DHT22;64127;51.488;5.462;2023-01-28T07:25:45;5.20;99.90
75430;DHT22;64127;51.488;5.462;2023-01-28T07:28:17;5.20;99.90
75430;DHT22;64127;51.488;5.462;2023-01-28T07:30:52;5.20;99.90
75430;DHT22;64127;51.488;5.462;2023-01-28T07:33:24;5.20;99.90
75430;DHT22;64127;51.488;5.462;2023-01-28T07:35:56;5.30;99.90
75430;DHT22;64127;51.488;5.462;2023-01-28T07:38:28;5.30;99.90
75430;DHT22;64127;51.488;5.462;2023-01-28T07:41:00;5.30;99.90
75430;DHT22;64127;51.488;5.462;2023-01-28T07:43:32;5.20;99.90
75430;DHT22;64127;51.488;5.462;2023-01-28T07:46:04;5.20;99.90
75430;DHT22;64127;51.488;5.462;2023-01-28T07:48:36;5.20;99.90
75430;DHT22;64127;51.488;5.462;2023-01-28T07:51:08;5.20;99.90
75430;DHT22;64127;51.488;5.462;2023-01-28T07:53:40;5.20;99.90
75430;DHT22;64127;51.488;5.462;2023-01-28T07:56:12;5.20;99.90
75430;DHT22;64127;51.488;5.462;2023-01-28T07:58:44;5.20;99.90
75430;DHT22;64127;51.488;5.462;2023-01-28T08:01:16;5.20;99.90
75430;DHT22;64127;51.488;5.462;2023-01-28T08:03:48;5.20;99.90
75430;DHT22;64127;51.488;5.462;2023-01-28T08:06:21;5.20;99.90
75430;DHT22;64127;51.488;5.462;2023-01-28T08:08:53;5.20;99.90
75430;DHT22;64127;51.488;5.462;2023-01-28T08:11:25;5.20;99.90
75430;DHT22;64127;51.488;5.462;2023-01-28T08:13:57;5.10;99.90
75430;DHT22;64127;51.488;5.462;2023-01-28T08:16:29;5.10;99.90
75430;DHT22;64127;51.488;5.462;2023-01-28T08:19:01;5.10;99.90
75430;DHT22;64127;51.488;5.462;2023-01-28T08:21:33;5.10;99.90
75430;DHT22;64127;51.488;5.462;2023-01-28T08:24:05;5.10;99.90
75430;DHT22;64127;51.488;5.462;2023-01-28T08:26:38;5.10;99.90
75430;DHT22;64127;51.488;5.462;2023-01-28T08:29:10;5.10;99.90
75430;DHT22;64127;51.488;5.462;2023-01-28T08:31:42;5.10;99.90
75430;DHT22;64127;51.488;5.462;2023-01-28T08:34:14;5.10;99.90
75430;DHT22;64127;51.488;5.462;2023-01-28T08:36:46;5.10;99.90
75430;DHT22;64127;51.488;5.462;2023-01-28T08:39:18;5.10;99.90
75430;DHT22;64127;51.488;5.462;2023-01-28T08:41:50;5.10;99.90
75430;DHT22;64127;51.488;5.462;2023-01-28T08:44:22;5.20;99.90
75430;DHT22;64127;51.488;5.462;2023-01-28T08:46:54;5.20;99.90
75430;DHT22;64127;51.488;5.462;2023-01-28T08:49:26;5.20;99.90
75430;DHT22;64127;51.488;5.462;2023-01-28T08:51:58;5.20;99.90
75430;DHT22;64127;51.488;5.462;2023-01-28T08:54:29;5.20;99.90
75430;DHT22;64127;51.488;5.462;2023-01-28T08:57:02;5.20;99.90
75430;DHT22;64127;51.488;5.462;2023-01-28T08:59:34;5.20;99.90
75430;DHT22;64127;51.488;5.462;2023-01-28T09:02:07;5.20;99.90
75430;DHT22;64127;51.488;5.462;2023-01-28T09:04:59;5.20;99.90
75430;DHT22;64127;51.488;5.462;2023-01-28T09:07:33;5.20;99.90
75430;DHT22;64127;51.488;5.462;2023-01-28T09:10:07;5.20;99.90
75430;DHT22;64127;51.488;5.462;2023-01-28T09:12:40;5.20;99.90
75430;DHT22;64127;51.488;5.462;2023-01-28T09:15:13;5.20;99.90
75430;DHT22;64127;51.488;5.462;2023-01-28T09:17:45;5.30;99.90
75430;DHT22;64127;51.488;5.462;2023-01-28T09:20:17;5.30;99.90
75430;DHT22;64127;51.488;5.462;2023-01-28T09:22:49;5.30;99.90
75430;DHT22;64127;51.488;5.462;2023-01-28T09:25:22;5.40;99.90
75430;DHT22;64127;51.488;5.462;2023-01-28T09:27:54;5.40;99.80
75430;DHT22;64127;51.488;5.462;2023-01-28T09:30:26;5.40;99.80
75430;DHT22;64127;51.488;5.462;2023-01-28T09:32:58;5.40;99.90
75430;DHT22;64127;51.488;5.462;2023-01-28T09:35:31;5.40;99.60
75430;DHT22;64127;51.488;5.462;2023-01-28T09:38:04;5.40;99.70
75430;DHT22;64127;51.488;5.462;2023-01-28T09:40:40;5.40;99.70
75430;DHT22;64127;51.488;5.462;2023-01-28T09:43:31;5.40;99.70
75430;DHT22;64127;51.488;5.462;2023-01-28T09:46:10;5.40;99.70
75430;DHT22;64127;51.488;5.462;2023-01-28T09:48:51;5.40;99.60
75430;DHT22;64127;51.488;5.462;2023-01-28T09:51:32;5.40;99.60
75430;DHT22;64127;51.488;5.462;2023-01-28T09:54:44;5.40;99.60
75430;DHT22;64127;51.488;5.462;2023-01-28T09:57:22;5.30;99.70
75430;DHT22;64127;51.488;5.462;2023-01-28T09:59:57;5.30;99.80
75430;DHT22;64127;51.488;5.462;2023-01-28T10:15:41;5.20;99.70
75430;DHT22;64127;51.488;5.462;2023-01-28T10:21:54;5.20;99.90
75430;DHT22;64127;51.488;5.462;2023-01-28T10:24:34;5.10;99.90
75430;DHT22;64127;51.488;5.462;2023-01-28T10:27:18;5.10;99.90
75430;DHT22;64127;51.488;5.462;2023-01-28T10:29:52;5.20;99.90
75430;DHT22;64127;51.488;5.462;2023-01-28T10:32:33;5.10;99.90
75430;DHT22;64127;51.488;5.462;2023-01-28T10:35:09;5.10;99.80
75430;DHT22;64127;51.488;5.462;2023-01-28T10:37:42;5.10;99.90
75430;DHT22;64127;51.488;5.462;2023-01-28T10:40:16;5.10;99.90
75430;DHT22;64127;51.488;5.462;2023-01-28T10:42:49;5.10;99.90
75430;DHT22;64127;51.488;5.462;2023-01-28T10:45:24;5.10;99.80
75430;DHT22;64127;51.488;5.462;2023-01-28T10:50:52;5.10;99.80
75430;DHT22;64127;51.488;5.462;2023-01-28T10:53:34;5.10;99.80
75430;DHT22;64127;51.488;5.462;2023-01-28T10:59:04;5.10;99.70
75430;DHT22;64127;51.488;5.462;2023-01-28T11:04:34;5.20;99.70
75430;DHT22;64127;51.488;5.462;2023-01-28T11:07:18;5.10;99.60
75430;DHT22;64127;51.488;5.462;2023-01-28T11:09:52;5.10;99.70
75430;DHT22;64127;51.488;5.462;2023-01-28T11:12:29;5.10;99.70
75430;DHT22;64127;51.488;5.462;2023-01-28T11:15:04;5.10;99.70
75430;DHT22;64127;51.488;5.462;2023-01-28T11:17:38;5.10;99.70
75430;DHT22;64127;51.488;5.462;2023-01-28T11:20:17;5.20;99.70
75430;DHT22;64127;51.488;5.462;2023-01-28T11:22:53;5.20;99.60
75430;DHT22;64127;51.488;5.462;2023-01-28T11:25:31;5.20;99.50
75430;DHT22;64127;51.488;5.462;2023-01-28T11:28:13;5.10;99.40
75430;DHT22;64127;51.488;5.462;2023-01-28T11:30:51;5.10;99.50
75430;DHT22;64127;51.488;5.462;2023-01-28T11:33:35;5.10;99.40
75430;DHT22;64127;51.488;5.462;2023-01-28T11:41:35;5.20;99.50
75430;DHT22;64127;51.488;5.462;2023-01-28T11:44:20;5.30;99.50
75430;DHT22;64127;51.488;5.462;2023-01-28T12:07:53;5.30;98.80
75430;DHT22;64127;51.488;5.462;2023-01-28T12:14:32;5.50;98.70
75430;DHT22;64127;51.488;5.462;2023-01-28T12:25:59;6.30;98.00
75430;DHT22;64127;51.488;5.462;2023-01-28T12:28:48;6.40;97.70
75430;DHT22;64127;51.488;5.462;2023-01-28T12:31:58;6.50;97.50
75430;DHT22;64127;51.488;5.462;2023-01-28T12:34:59;6.50;97.20
75430;DHT22;64127;51.488;5.462;2023-01-28T12:40:56;7.10;97.40
75430;DHT22;64127;51.488;5.462;2023-01-28T12:43:49;7.90;96.30
75430;DHT22;64127;51.488;5.462;2023-01-28T12:46:48;8.60;95.20
75430;DHT22;64127;51.488;5.462;2023-01-28T12:49:45;8.80;94.40
75430;DHT22;64127;51.488;5.462;2023-01-28T12:52:35;8.60;94.20
75430;DHT22;64127;51.488;5.462;2023-01-28T12:57:51;8.10;94.80
75430;DHT22;64127;51.488;5.462;2023-01-28T13:00:36;8.00;94.90
75430;DHT22;64127;51.488;5.462;2023-01-28T13:03:48;7.80;94.70
75430;DHT22;64127;51.488;5.462;2023-01-28T13:06:46;7.50;94.80
75430;DHT22;64127;51.488;5.462;2023-01-28T13:09:26;7.30;95.10
75430;DHT22;64127;51.488;5.462;2023-01-28T13:12:01;7.00;95.40
75430;DHT22;64127;51.488;5.462;2023-01-28T13:14:35;6.90;95.40
75430;DHT22;64127;51.488;5.462;2023-01-28T13:17:12;6.80;95.40
75430;DHT22;64127;51.488;5.462;2023-01-28T13:19:58;6.80;95.70
75430;DHT22;64127;51.488;5.462;2023-01-28T13:22:35;7.00;95.50
75430;DHT22;64127;51.488;5.462;2023-01-28T13:25:25;7.10;95.50
75430;DHT22;64127;51.488;5.462;2023-01-28T13:28:03;7.10;95.40
75430;DHT22;64127;51.488;5.462;2023-01-28T13:30:47;7.00;95.40
75430;DHT22;64127;51.488;5.462;2023-01-28T13:36:32;6.80;95.40
75430;DHT22;64127;51.488;5.462;2023-01-28T13:41:54;6.60;95.30
75430;DHT22;64127;51.488;5.462;2023-01-28T13:44:38;6.70;95.50
75430;DHT22;64127;51.488;5.462;2023-01-28T13:49:52;6.70;95.30
75430;DHT22;64127;51.488;5.462;2023-01-28T13:52:41;6.70;95.70
75430;DHT22;64127;51.488;5.462;2023-01-28T13:55:21;6.80;95.40
75430;DHT22;64127;51.488;5.462;2023-01-28T14:07:05;6.80;95.10
75430;DHT22;64127;51.488;5.462;2023-01-28T14:16:10;8.40;94.70
75430;DHT22;64127;51.488;5.462;2023-01-28T14:18:58;9.70;93.20
75430;DHT22;64127;51.488;5.462;2023-01-28T14:21:34;10.80;91.10
75430;DHT22;64127;51.488;5.462;2023-01-28T14:24:14;11.10;90.00
75430;DHT22;64127;51.488;5.462;2023-01-28T14:27:05;11.30;87.90
75430;DHT22;64127;51.488;5.462;2023-01-28T14:32:34;10.50;87.40
75430;DHT22;64127;51.488;5.462;2023-01-28T14:35:08;10.30;87.90
75430;DHT22;64127;51.488;5.462;2023-01-28T14:37:40;10.30;87.60
75430;DHT22;64127;51.488;5.462;2023-01-28T14:40:15;10.20;87.40
75430;DHT22;64127;51.488;5.462;2023-01-28T14:42:54;9.80;88.80
75430;DHT22;64127;51.488;5.462;2023-01-28T14:48:28;8.90;90.30
75430;DHT22;64127;51.488;5.462;2023-01-28T14:57:43;7.90;91.60
75430;DHT22;64127;51.488;5.462;2023-01-28T15:00:25;7.60;91.90
75430;DHT22;64127;51.488;5.462;2023-01-28T15:02:59;7.40;92.30
75430;DHT22;64127;51.488;5.462;2023-01-28T15:05:33;7.20;92.60
75430;DHT22;64127;51.488;5.462;2023-01-28T15:08:05;7.10;92.80
75430;DHT22;64127;51.488;5.462;2023-01-28T15:10:37;7.00;92.80
75430;DHT22;64127;51.488;5.462;2023-01-28T15:13:24;6.80;92.80
75430;DHT22;64127;51.488;5.462;2023-01-28T15:15:59;6.70;93.00
75430;DHT22;64127;51.488;5.462;2023-01-28T15:18:35;6.60;93.20
75430;DHT22;64127;51.488;5.462;2023-01-28T15:21:11;6.60;93.30
75430;DHT22;64127;51.488;5.462;2023-01-28T15:23:46;6.50;93.30
75430;DHT22;64127;51.488;5.462;2023-01-28T15:26:25;6.50;93.30
75430;DHT22;64127;51.488;5.462;2023-01-28T15:28:59;6.50;93.40
75430;DHT22;64127;51.488;5.462;2023-01-28T15:31:34;6.40;93.60
75430;DHT22;64127;51.488;5.462;2023-01-28T15:34:14;6.40;93.70
75430;DHT22;64127;51.488;5.462;2023-01-28T15:36:48;6.40;93.80
75430;DHT22;64127;51.488;5.462;2023-01-28T15:39:22;6.40;93.90
75430;DHT22;64127;51.488;5.462;2023-01-28T15:42:02;6.30;94.10
75430;DHT22;64127;51.488;5.462;2023-01-28T15:44:38;6.30;94.10
75430;DHT22;64127;51.488;5.462;2023-01-28T15:47:22;6.20;94.20
75430;DHT22;64127;51.488;5.462;2023-01-28T15:49:58;6.20;94.40
75430;DHT22;64127;51.488;5.462;2023-01-28T15:52:38;6.10;94.50
75430;DHT22;64127;51.488;5.462;2023-01-28T15:58:30;6.00;94.90
75430;DHT22;64127;51.488;5.462;2023-01-28T16:03:42;5.80;95.10
75430;DHT22;64127;51.488;5.462;2023-01-28T16:06:20;5.70;95.70
75430;DHT22;64127;51.488;5.462;2023-01-28T16:08:54;5.70;95.60
75430;DHT22;64127;51.488;5.462;2023-01-28T16:11:33;5.60;95.80
75430;DHT22;64127;51.488;5.462;2023-01-28T16:14:24;5.60;96.00
75430;DHT22;64127;51.488;5.462;2023-01-28T16:16:59;5.50;96.20
75430;DHT22;64127;51.488;5.462;2023-01-28T16:19:38;5.40;96.30
75430;DHT22;64127;51.488;5.462;2023-01-28T16:22:20;5.30;96.70
75430;DHT22;64127;51.488;5.462;2023-01-28T16:25:01;5.30;96.60
75430;DHT22;64127;51.488;5.462;2023-01-28T16:27:34;5.20;96.80
75430;DHT22;64127;51.488;5.462;2023-01-28T16:30:07;5.20;96.90
75430;DHT22;64127;51.488;5.462;2023-01-28T16:32:40;5.10;97.10
75430;DHT22;64127;51.488;5.462;2023-01-28T16:35:18;5.00;97.30
75430;DHT22;64127;51.488;5.462;2023-01-28T16:37:54;5.00;97.40
75430;DHT22;64127;51.488;5.462;2023-01-28T16:40:26;4.90;97.40
75430;DHT22;64127;51.488;5.462;2023-01-28T16:42:58;4.80;97.50
75430;DHT22;64127;51.488;5.462;2023-01-28T16:45:30;4.80;97.70
75430;DHT22;64127;51.488;5.462;2023-01-28T16:48:03;4.80;97.90
75430;DHT22;64127;51.488;5.462;2023-01-28T16:50:38;4.70;98.00
75430;DHT22;64127;51.488;5.462;2023-01-28T16:53:20;4.70;98.00
75430;DHT22;64127;51.488;5.462;2023-01-28T16:55:59;4.70;98.10
75430;DHT22;64127;51.488;5.462;2023-01-28T16:58:32;4.70;98.20
75430;DHT22;64127;51.488;5.462;2023-01-28T17:01:04;4.60;98.20
75430;DHT22;64127;51.488;5.462;2023-01-28T17:03:37;4.60;98.30
75430;DHT22;64127;51.488;5.462;2023-01-28T17:06:17;4.50;98.30
75430;DHT22;64127;51.488;5.462;2023-01-28T17:08:50;4.50;98.50
75430;DHT22;64127;51.488;5.462;2023-01-28T17:11:22;4.40;98.50
75430;DHT22;64127;51.488;5.462;2023-01-28T17:13:54;4.40;98.50
75430;DHT22;64127;51.488;5.462;2023-01-28T17:16:27;4.30;98.60
75430;DHT22;64127;51.488;5.462;2023-01-28T17:18:59;4.30;98.70
75430;DHT22;64127;51.488;5.462;2023-01-28T17:21:31;4.20;98.70
75430;DHT22;64127;51.488;5.462;2023-01-28T17:24:04;4.20;98.70
75430;DHT22;64127;51.488;5.462;2023-01-28T17:26:36;4.20;98.80
75430;DHT22;64127;51.488;5.462;2023-01-28T17:29:08;4.20;99.00
75430;DHT22;64127;51.488;5.462;2023-01-28T17:31:40;4.10;99.00
75430;DHT22;64127;51.488;5.462;2023-01-28T17:34:13;4.10;99.10
75430;DHT22;64127;51.488;5.462;2023-01-28T17:36:45;4.10;99.30
75430;DHT22;64127;51.488;5.462;2023-01-28T17:39:17;4.00;99.30
75430;DHT22;64127;51.488;5.462;2023-01-28T17:41:49;4.00;99.30
75430;DHT22;64127;51.488;5.462;2023-01-28T17:44:22;4.00;99.30
75430;DHT22;64127;51.488;5.462;2023-01-28T17:46:54;4.00;99.40
75430;DHT22;64127;51.488;5.462;2023-01-28T17:49:26;4.00;99.40
75430;DHT22;64127;51.488;5.462;2023-01-28T17:51:58;4.00;99.50
75430;DHT22;64127;51.488;5.462;2023-01-28T17:54:30;3.90;99.60
75430;DHT22;64127;51.488;5.462;2023-01-28T17:57:02;3.90;99.60
75430;DHT22;64127;51.488;5.462;2023-01-28T17:59:34;3.90;99.60
75430;DHT22;64127;51.488;5.462;2023-01-28T18:02:09;3.90;99.60
75430;DHT22;64127;51.488;5.462;2023-01-28T18:04:42;3.80;99.70
75430;DHT22;64127;51.488;5.462;2023-01-28T18:07:14;3.80;99.80
75430;DHT22;64127;51.488;5.462;2023-01-28T18:09:47;3.80;99.90
75430;DHT22;64127;51.488;5.462;2023-01-28T18:12:19;3.70;99.90
75430;DHT22;64127;51.488;5.462;2023-01-28T18:14:51;3.70;99.90
75430;DHT22;64127;51.488;5.462;2023-01-28T18:17:23;3.70;99.90
75430;DHT22;64127;51.488;5.462;2023-01-28T18:20:00;3.60;99.90
75430;DHT22;64127;51.488;5.462;2023-01-28T18:22:34;3.60;99.90
75430;DHT22;64127;51.488;5.462;2023-01-28T18:25:07;3.60;99.90
75430;DHT22;64127;51.488;5.462;2023-01-28T18:27:42;3.60;99.90
75430;DHT22;64127;51.488;5.462;2023-01-28T18:30:15;3.60;99.90
75430;DHT22;64127;51.488;5.462;2023-01-28T18:32:47;3.60;99.90
75430;DHT22;64127;51.488;5.462;2023-01-28T18:35:19;3.50;99.90
75430;DHT22;64127;51.488;5.462;2023-01-28T18:37:51;3.50;99.90
75430;DHT22;64127;51.488;5.462;2023-01-28T18:40:23;3.50;99.90
75430;DHT22;64127;51.488;5.462;2023-01-28T18:42:55;3.40;99.90
75430;DHT22;64127;51.488;5.462;2023-01-28T18:45:27;3.40;99.90
75430;DHT22;64127;51.488;5.462;2023-01-28T18:47:59;3.40;99.90
75430;DHT22;64127;51.488;5.462;2023-01-28T18:50:31;3.30;99.90
75430;DHT22;64127;51.488;5.462;2023-01-28T18:53:03;3.30;99.90
75430;DHT22;64127;51.488;5.462;2023-01-28T18:55:35;3.30;99.90
75430;DHT22;64127;51.488;5.462;2023-01-28T18:58:07;3.30;99.90
75430;DHT22;64127;51.488;5.462;2023-01-28T19:00:39;3.30;99.90